Terminal Aerodrome Forecast
Issued by NWS

Home | Current Version | Previous Version | Text Only | Print | Product List | Glossary On
Versions: 1 2 3 4 5 6 7 8 9 10 11 12 13 14 15 16
620
FTUS46 KMTR 161152 AAA
TAFSNS
TAF AMD
KSNS 161152Z 1612/1712 00000KT 5SM BR OVC013
      TEMPO 1612/1615 1/2SM FG VV002
     FM161700 28005KT P6SM SCT030 BKN200
     FM170300 VRB03KT P6SM BKN200=

USA.gov is the U.S. government's official web portal to all federal, state and local government web resources and services.